USCMUWKE

Guest
Details From USCM - Magnitogorsk
To UWKE - Begishevo
Flight Number -
Tags Generated
Created
Modified
Stats Distance 267 nm / 495 km
Max Altitude 0 ft / 0 m
Waypoints 3
Social Downloads 0
Likes 0
Share VATSIM

Download

Looking for another format? Having issues loading an existing format? Contact us
Advertisement - Login to hide

Notes

Generated

Route

USCM UWKE UWKE

ID Type Via Altitude Latitude Longitude Leg Dist Tot Dist Heading (true) Name
O USCM APT - 0 ft / 0 m 53.37912˚ 58.74883˚ - 0 nm - -
UWKE FIX - 0 ft / 0 m 55.56333˚ 52.09500˚ 266 nm 266 nm 302° / 297° -
O UWKE APT - 0 ft / 0 m 55.55759˚ 52.07712˚ 0 nm 267 nm 240° / 240° -

Altitude Profile

Advertisement - Login to hide

Weather


0- 5 10 15 20 25 30 35+ Temperature / ° C

Clouds and Precipitation
Forecast for 2018-05-25 06:00 UTC. Updated 2 hours ago

Ground ~20,000 ft ~40,000 ft Winds

USCM

Details ICAO USCM (MQF)
Name MAGNITOGORSK
Region Russia
Timezone Asia/Yekaterinburg (UTC+5.0)
Stats Elevation 1,431 ft / 436 m (AMSL)
Location 53.393132° 58.755661°
Runways 1
Magnetic Variation 12.557° E

METAR

USCM 250730Z 31004MPS 9999 -SHRA OVC040CB 16/08 Q1012 R36/090065 TEMPO VRB14MPS 2100 -TSRA SQ VV006 RMK QFE721

Decode

TAF

Not found

Departure Runways

ID Width Length Bearing (true) Bearing (mag) Surface Threshold Offset Overrun Length
01 148 ft / 45 m 10,648 ft / 3,246 m 16.20° 3.64° Concrete 0 ft / 0 m 140 ft / 43 m
19 148 ft / 45 m 10,648 ft / 3,246 m 196.21° 183.65° Concrete 0 ft / 0 m 140 ft / 43 m

UWKE

Details ICAO UWKE (NBC)
Name BEGISHEVO
Region Russia
Timezone Europe/Moscow (UTC+3.0)
Stats Elevation 643 ft / 196 m (AMSL)
Location 55.563755° 52.089791°
Runways 2
Magnetic Variation 13.643° E

METAR

UWKE 250730Z 04009MPS 9999 BKN018 10/05 Q1017 R03/210370 NOSIG RMK QFE745/0994

Decode

TAF

TAF UWKE 250445Z 2506/2606 02006G12MPS 9999 BKN015 TEMPO 2506/2509 05007G14MPS 3100 -SHRA BKN007 BKN011CB TEMPO 2509/2521 36007G14MPS 3100 -SHRA BR BKN011CB

Decode

Destination Runways

ID Width Length Bearing (true) Bearing (mag) Surface Threshold Offset Overrun Length
03 190 ft / 58 m 5,609 ft / 1,710 m 47.09° 33.45° Grass 0 ft / 0 m 0 ft / 0 m
04 138 ft / 42 m 8,149 ft / 2,484 m 46.89° 33.25° Asphalt 0 ft / 0 m 170 ft / 52 m
21 190 ft / 58 m 5,609 ft / 1,710 m 227.11° 213.47° Grass 0 ft / 0 m 0 ft / 0 m
22 138 ft / 42 m 8,149 ft / 2,484 m 226.91° 213.27° Asphalt 0 ft / 0 m 190 ft / 58 m

Approach Navaids

Runway Type Ident Frequency Range Bearing (true) Bearing (mag) Slope Elevation
22 Localiser INK 109.90 MHz 18 nm / 33 km 226.51° 212.87° - 643 ft / 196 m (AMSL)
22 Glidescope INK 109.90 MHz 10 nm / 19 km 226.90° 213.26° 2.70° 643 ft / 196 m (AMSL)